Flight Track Log - Related Links

Times and Time Zones

All times are in EDT time to prevent confusion due to time zone crossing. See the JUS191 flight status page for this flight to view local times or setup timezone preferences in your user account.

Time Position Orientation Groundspeed Altitude Reporting Facility
EDT Latitude Longitude Course Direction KTS MPH feet Rate Location/Type
Thu 03:17:33 PM 41.5836 -83.9075 324° Northwest 186 214 3,700  Level FAA TRACON SMA TRACON (SMA)
Thu 03:18:13 PM 41.6122 -83.9353 358° North 195 224 3,900 150 Climbing FAA TRACON SMA TRACON (SMA)
Thu 03:18:53 PM 41.6486 -83.9367 North 194 223 3,900  Level FAA TRACON SMA TRACON (SMA)
Thu 03:19:34 PM 41.6842 -83.9356 360° North 196 226 3,900  Level FAA TRACON SMA TRACON (SMA)
Thu 03:20:13 PM 41.7219 -83.9353 358° North 196 226 3,900  Level FAA TRACON SMA TRACON (SMA)
Thu 03:20:53 PM 41.7581 -83.9369 358° North 195 224 3,900  Level FAA TRACON SMA TRACON (SMA)
Thu 03:21:33 PM 41.7958 -83.9389 North 205 236 3,900  Level FAA TRACON SMA TRACON (SMA)
Thu 03:22:14 PM 41.8381 -83.9372 North 216 249 3,900 75 Level FAA TRACON SMA TRACON (SMA)
Thu 03:22:53 PM 41.8761 -83.9306 North 211 243 4,000  Climbing FAA TRACON SMA TRACON (SMA)
Thu 03:23:33 PM 41.9128 -83.9272 North 202 232 3,900  Descending FAA TRACON SMA TRACON (SMA)
Thu 03:24:13 PM 41.9508 -83.9244 14° North 199 229 4,000  Climbing FAA TRACON SMA TRACON (SMA)
Thu 03:24:54 PM 41.9858 -83.9125 26° Northeast 197 227 3,900 -71 Descending FAA TRACON SMA TRACON (SMA)
Thu 03:25:37 PM 42.0233 -83.8883 36° Northeast 197 227 3,900  Level FAA TRACON SMA TRACON (SMA)
Thu 03:26:13 PM 42.0486 -83.8633 36° Northeast 197 227 3,900 78 Level FAA TRACON SMA TRACON (SMA)
Thu 03:26:54 PM 42.0786 -83.8342 34° Northeast 200 230 4,000  Climbing FAA TRACON SMA TRACON (SMA)
Thu 03:27:33 PM 42.1117 -83.8036 42° Northeast 205 236 3,900 -456 Descending FAA TRACON SMA TRACON (SMA)
Thu 03:28:13 PM 42.1394 -83.7700 45° Northeast 206 237 3,400 -750 Descending FAA TRACON SMA TRACON (SMA)
Thu 03:28:53 PM 42.1653 -83.7347 43° Northeast 202 232 2,900 -296 Descending FAA TRACON SMA TRACON (SMA)
Thu 03:29:34 PM 42.1947 -83.6978 42° Northeast 208 239 3,000 74 Climbing FAA TRACON SMA TRACON (SMA)
Thu 03:30:14 PM 42.2217 -83.6650 38° Northeast 196 226 3,000 -380 Level FAA TRACON SMA TRACON (SMA)
Thu 03:30:53 PM 42.2494 -83.6361 29° Northeast 199 229 2,500 -450 Descending FAA TRACON SMA TRACON (SMA)
Thu 03:31:34 PM 42.2814 -83.6125 27° Northeast 187 215 2,400 -75 Descending FAA TRACON SMA TRACON (SMA)
Thu 03:32:13 PM 42.3106 -83.5922 62° Northeast 178 205 2,400 -61 Level FAA TRACON SMA TRACON (SMA)
Thu 03:33:13 PM 42.3300 -83.5431 139° Southeast 162 186 2,300  Descending FAA TRACON SMA TRACON (SMA)
Thu 03:33:53 PM 42.3089 -83.5183 134° Southeast 153 176 2,400 -296 Climbing FAA TRACON SMA TRACON (SMA)
Thu 03:34:34 PM 42.2858 -83.4864 190° South 172 198 1,900 -889 Descending FAA TRACON SMA TRACON (SMA)
Thu 03:35:14 PM 42.2625 -83.4922 229° Southwest 143 165 1,200 -750 Descending FAA TRACON SMA TRACON (SMA)
Thu 03:35:54 PM 42.2503 -83.5114 229° Southwest 137 158 900 -450 Descending FAA TRACON SMA TRACON (SMA)

Login

Don't have an account? Register now (free) for customized features, flight alerts, and more!